createdAt,value
2022-09-10T00:01:59.174Z,99625.91
2022-09-10T00:04:47.619Z,99627.81
2022-09-10T00:07:37.682Z,99619.88
2022-09-10T00:10:27.055Z,99609.88
2022-09-10T00:13:15.902Z,99626.84
2022-09-10T00:16:05.706Z,99626.84
2022-09-10T00:18:54.092Z,99628.75
2022-09-10T00:21:42.478Z,99631.56
2022-09-10T00:24:33.674Z,99635.09
2022-09-10T00:27:22.056Z,99628.13
2022-09-10T00:30:12.174Z,99628.44
2022-09-10T00:33:00.525Z,99637.22
2022-09-10T00:35:50.365Z,99630.56
2022-09-10T00:38:38.844Z,99633.16
2022-09-10T00:41:29.204Z,99628.06
2022-09-10T00:45:00.630Z,99630.78
2022-09-10T00:47:50.326Z,99629.09
2022-09-10T00:50:41.615Z,99636.19
2022-09-10T00:53:30.096Z,99632.75
2022-09-10T00:56:18.703Z,99623.72
2022-09-10T00:59:09.248Z,99619.34
2022-09-10T01:01:59.556Z,99621.84
2022-09-10T01:04:47.931Z,99617.47
2022-09-10T01:07:37.433Z,99625.06
2022-09-10T01:10:28.405Z,99619.03
2022-09-10T01:13:34.896Z,99617.03
2022-09-10T01:16:29.878Z,99623.91
2022-09-10T01:19:34.399Z,99626.41
2022-09-10T01:22:29.164Z,99621.81
2022-09-10T01:25:22.594Z,99635.66
2022-09-10T01:28:14.514Z,99620.13
2022-09-10T01:31:11.981Z,99625.34
2022-09-10T01:34:03.004Z,99628.91
2022-09-10T01:36:51.897Z,99633.88
2022-09-10T01:39:40.934Z,99631.28
2022-09-10T01:42:29.833Z,99634.72
2022-09-10T01:45:19.754Z,99634.94
2022-09-10T01:48:35.036Z,99633.88
2022-09-10T01:51:28.820Z,99634.94
2022-09-10T01:54:30.142Z,99634.84
2022-09-10T01:57:29.458Z,99641.78
2022-09-10T02:00:22.865Z,99638.28
2022-09-10T02:03:16.686Z,99633.16
2022-09-10T02:06:10.059Z,99632.94
2022-09-10T02:08:59.771Z,99629.72
2022-09-10T02:11:49.884Z,99631.91
2022-09-10T02:14:58.402Z,99627.53
2022-09-10T02:17:56.909Z,99633.66
2022-09-10T02:20:45.375Z,99630.84
2022-09-10T02:23:39.235Z,99626.56
2022-09-10T02:26:27.799Z,99625.66
2022-09-10T02:29:17.042Z,99629.91
2022-09-10T02:32:08.094Z,99632.63
2022-09-10T02:34:58.618Z,99630.84
2022-09-10T02:37:50.541Z,99627.41
2022-09-10T02:40:39.223Z,99618.88
2022-09-10T02:43:29.194Z,99624.19
2022-09-10T02:46:19.991Z,99608.66
2022-09-10T02:49:09.886Z,99602.63
2022-09-10T02:52:02.705Z,99605.47
2022-09-10T02:54:51.367Z,99602.63
2022-09-10T02:57:40.334Z,99595.66
2022-09-10T03:00:28.731Z,99601.47
2022-09-10T03:03:17.241Z,99611.66
2022-09-10T03:06:06.557Z,99608.22
2022-09-10T03:08:57.463Z,99608.34
2022-09-10T03:11:47.772Z,99612.63
2022-09-10T03:14:36.100Z,99608.22
2022-09-10T03:17:24.490Z,99608.34
2022-09-10T03:20:12.853Z,99607.63
2022-09-10T03:23:01.213Z,99607.84
2022-09-10T03:25:50.944Z,99599.53
2022-09-10T03:28:47.508Z,99609.97
2022-09-10T03:31:37.671Z,99614.94
2022-09-10T03:34:26.068Z,99613.06
2022-09-10T03:37:14.503Z,99616.81
2022-09-10T03:40:04.579Z,99613.63
2022-09-10T03:42:54.468Z,99605.81
2022-09-10T03:45:44.072Z,99617.03
2022-09-10T03:48:32.499Z,99616.94
2022-09-10T03:51:20.836Z,99620.25
2022-09-10T03:54:09.529Z,99622.84
2022-09-10T03:57:03.327Z,99619.41
2022-09-10T03:59:54.569Z,99612.44
2022-09-10T04:02:44.054Z,99607.94
2022-09-10T04:05:33.506Z,99607.34
2022-09-10T04:08:22.021Z,99616.72
2022-09-10T04:11:13.702Z,99613.47
2022-09-10T04:14:02.046Z,99617.97
2022-09-10T04:16:52.231Z,99618.91
2022-09-10T04:19:41.453Z,99621.53
2022-09-10T04:22:29.917Z,99616.31
2022-09-10T04:25:20.571Z,99620.69
2022-09-10T04:28:09.427Z,99615.59
2022-09-10T04:30:59.558Z,99617.69
2022-09-10T04:33:49.490Z,99616.03
2022-09-10T04:36:42.292Z,99617.56
2022-09-10T04:39:30.918Z,99621.94
2022-09-10T04:42:20.297Z,99614.13
2022-09-10T04:45:10.744Z,99621.22
2022-09-10T04:48:01.634Z,99615.28
2022-09-10T04:51:14.667Z,99614.56
2022-09-10T04:54:05.349Z,99619.19
2022-09-10T04:56:57.836Z,99621.06
2022-09-10T04:59:46.172Z,99629.91
2022-09-10T05:02:37.595Z,99630.84
2022-09-10T05:05:25.963Z,99630.75
2022-09-10T05:08:15.775Z,99628.97
2022-09-10T05:11:11.551Z,99640.44
2022-09-10T05:13:59.921Z,99635.31
2022-09-10T05:16:50.780Z,99639.78
2022-09-10T05:19:39.387Z,99638.97
2022-09-10T05:22:37.188Z,99647.50
2022-09-10T05:25:30.029Z,99642.41
2022-09-10T05:28:22.607Z,99644.06
2022-09-10T05:31:10.994Z,99640.84
2022-09-10T05:34:01.267Z,99642.63
2022-09-10T05:36:51.821Z,99646.06
2022-09-10T05:39:40.227Z,99650.44
2022-09-10T05:42:31.035Z,99647.09
2022-09-10T05:45:20.262Z,99644.50
2022-09-10T05:48:08.868Z,99641.91
2022-09-10T05:50:57.327Z,99647.09
2022-09-10T05:53:45.918Z,99645.22
2022-09-10T05:56:34.676Z,99646.06
2022-09-10T05:59:24.970Z,99646.91
2022-09-10T06:02:19.492Z,99643.34
2022-09-10T06:05:11.213Z,99647.59
2022-09-10T06:07:59.783Z,99651.06
2022-09-10T06:10:57.285Z,99643.97
2022-09-10T06:13:47.549Z,99650.09
2022-09-10T06:16:37.423Z,99648.31
2022-09-10T06:19:28.252Z,99650.94
2022-09-10T06:22:17.392Z,99657.91
2022-09-10T06:25:10.905Z,99663.03
2022-09-10T06:28:01.713Z,99661.56
2022-09-10T06:30:50.469Z,99668.66
2022-09-10T06:33:40.271Z,99653.97
2022-09-10T06:36:29.587Z,99681.88
2022-09-10T06:39:18.559Z,99674.81
2022-09-10T06:42:10.940Z,99677.28
2022-09-10T06:45:16.617Z,99664.06
2022-09-10T06:48:48.390Z,99673.44
2022-09-10T06:51:40.519Z,99676.63
2022-09-10T06:54:30.942Z,99675.63
2022-09-10T06:57:31.793Z,99678.91
2022-09-10T07:00:22.365Z,99674.44
2022-09-10T07:03:14.875Z,99677.03
2022-09-10T07:06:06.966Z,99681.09
2022-09-10T07:08:57.492Z,99684.22
2022-09-10T07:11:49.148Z,99683.91
2022-09-10T07:14:39.111Z,99686.19
2022-09-10T07:17:31.884Z,99685.72
2022-09-10T07:20:23.265Z,99689.06
2022-09-10T07:23:12.939Z,99693.44
2022-09-10T07:26:06.416Z,99695.13
2022-09-10T07:29:00.409Z,99701.88
2022-09-10T07:31:49.065Z,99695.72
2022-09-10T07:34:42.280Z,99701.75
2022-09-10T07:37:32.294Z,99713.75
2022-09-10T07:40:21.148Z,99717.19
2022-09-10T07:46:50.900Z,99715.91
2022-09-10T07:49:40.565Z,99726.31
2022-09-10T07:52:29.758Z,99728.00
2022-09-10T07:55:19.083Z,99727.88
2022-09-10T07:58:07.770Z,99729.31
2022-09-10T08:00:57.322Z,99725.66
2022-09-10T08:03:47.077Z,99735.88
2022-09-10T08:06:38.955Z,99734.00
2022-09-10T08:09:27.733Z,99724.81
2022-09-10T08:12:17.639Z,99736.69
2022-09-10T08:15:08.475Z,99731.25
2022-09-10T08:17:56.961Z,99740.41
2022-09-10T08:20:46.851Z,99735.63
2022-09-10T08:23:35.381Z,99735.16
2022-09-10T08:26:24.356Z,99740.88
2022-09-10T08:29:13.838Z,99740.94
2022-09-10T08:32:02.976Z,99743.59
2022-09-10T08:34:53.404Z,99750.00
2022-09-10T08:37:43.663Z,99745.28
2022-09-10T08:40:32.561Z,99753.63
2022-09-10T08:43:25.675Z,99754.44
2022-09-10T08:46:17.421Z,99752.31
2022-09-10T08:49:09.060Z,99749.00
2022-09-10T08:52:01.573Z,99749.16
2022-09-10T08:54:58.983Z,99758.91
2022-09-10T08:57:50.136Z,99748.13
2022-09-10T09:00:40.268Z,99753.72
2022-09-10T09:03:35.799Z,99758.16
2022-09-10T09:06:29.069Z,99756.75
2022-09-10T09:09:18.119Z,99759.47
2022-09-10T09:12:16.110Z,99759.03
2022-09-10T09:15:10.382Z,99760.56
2022-09-10T09:18:10.962Z,99754.75
2022-09-10T09:21:04.152Z,99752.63
2022-09-10T09:24:13.637Z,99757.72
2022-09-10T09:27:13.837Z,99753.44
2022-09-10T09:30:06.002Z,99762.63
2022-09-10T09:33:16.315Z,99754.78
2022-09-10T09:36:06.214Z,99752.88
2022-09-10T09:38:56.924Z,99750.84
2022-09-10T09:41:52.526Z,99759.75
2022-09-10T09:44:47.069Z,99751.66
2022-09-10T09:47:35.787Z,99749.53
2022-09-10T09:50:25.124Z,99747.38
2022-09-10T09:53:18.875Z,99747.03
2022-09-10T09:56:13.387Z,99748.59
2022-09-10T09:59:13.054Z,99744.53
2022-09-10T10:02:13.213Z,99742.63
2022-09-10T10:05:06.992Z,99736.19
2022-09-10T10:07:55.339Z,99746.66
2022-09-10T10:10:44.211Z,99726.16
2022-09-10T10:13:38.240Z,99729.28
2022-09-10T10:16:36.091Z,99733.06
2022-09-10T10:19:31.607Z,99725.50
2022-09-10T10:22:25.750Z,99718.75
2022-09-10T10:25:38.250Z,99729.16
2022-09-10T10:28:27.392Z,99725.25
2022-09-10T10:31:15.781Z,99726.00
2022-09-10T10:34:28.386Z,99721.25
2022-09-10T10:37:23.576Z,99727.25
2022-09-10T10:40:16.685Z,99728.47
2022-09-10T10:43:11.786Z,99729.00
2022-09-10T10:46:02.259Z,99723.16
2022-09-10T10:49:06.487Z,99727.69
2022-09-10T10:52:01.955Z,99728.41
2022-09-10T10:55:03.421Z,99729.34
2022-09-10T10:58:13.002Z,99722.22
2022-09-10T11:01:05.054Z,99717.13
2022-09-10T11:04:00.572Z,99731.72
2022-09-10T11:06:53.384Z,99732.44
2022-09-10T11:09:43.855Z,99725.66
2022-09-10T11:12:36.038Z,99720.31
2022-09-10T11:15:30.265Z,99721.84
2022-09-10T11:18:21.874Z,99713.19
2022-09-10T11:21:18.750Z,99720.09
2022-09-10T11:24:16.350Z,99717.34
2022-09-10T11:27:08.324Z,99721.50
2022-09-10T11:30:01.578Z,99710.94
2022-09-10T11:32:54.765Z,99712.50
2022-09-10T11:35:45.389Z,99717.50
2022-09-10T11:38:42.703Z,99713.44
2022-09-10T11:41:32.613Z,99711.06
2022-09-10T11:44:38.526Z,99716.06
2022-09-10T11:47:31.224Z,99698.50
2022-09-10T11:50:33.683Z,99707.63
2022-09-10T11:53:24.689Z,99707.41
2022-09-10T11:56:46.951Z,99706.09
2022-09-10T11:59:50.254Z,99709.53
2022-09-10T12:03:32.036Z,99712.28
2022-09-10T12:06:23.800Z,99703.13
2022-09-10T12:09:15.762Z,99705.47
2022-09-10T12:12:07.125Z,99698.25
2022-09-10T12:14:56.016Z,99699.69
2022-09-10T12:17:45.230Z,99706.34
2022-09-10T12:20:35.383Z,99700.25
2022-09-10T12:23:27.667Z,99700.41
2022-09-10T12:26:19.790Z,99704.19
2022-09-10T12:29:33.118Z,99706.91
2022-09-10T12:32:30.785Z,99703.72
2022-09-10T12:35:47.657Z,99689.81
2022-09-10T12:38:51.792Z,99694.69
2022-09-10T12:42:03.135Z,99700.84
2022-09-10T12:44:51.475Z,99700.59
2022-09-10T12:47:52.989Z,99697.66
2022-09-10T12:50:46.137Z,99700.84
2022-09-10T12:54:02.794Z,99691.69
2022-09-10T12:57:12.674Z,99685.13
2022-09-10T13:00:25.851Z,99700.94
2022-09-10T13:03:17.572Z,99696.94
2022-09-10T13:06:07.009Z,99691.81
2022-09-10T13:08:55.364Z,99687.41
2022-09-10T13:11:46.534Z,99679.75
2022-09-10T13:14:38.070Z,99690.88
2022-09-10T13:18:15.701Z,99687.56
2022-09-10T13:21:52.787Z,99688.41
2022-09-10T13:25:03.447Z,99678.50
2022-09-10T13:27:53.973Z,99673.88
2022-09-10T13:30:42.370Z,99674.19
2022-09-10T13:33:31.063Z,99663.75
2022-09-10T13:36:24.727Z,99660.56
2022-09-10T13:39:57.288Z,99659.88
2022-09-10T13:43:05.602Z,99651.31
2022-09-10T13:45:55.989Z,99648.69
2022-09-10T13:48:47.319Z,99656.56
2022-09-10T13:51:37.597Z,99662.50
2022-09-10T13:54:34.352Z,99651.94
2022-09-10T13:57:26.544Z,99638.28
2022-09-10T14:00:23.578Z,99645.38
2022-09-10T14:03:16.065Z,99646.44
2022-09-10T14:06:05.144Z,99650.44
2022-09-10T14:08:55.472Z,99647.13
2022-09-10T14:11:44.010Z,99647.41
2022-09-10T14:14:35.919Z,99647.41
2022-09-10T14:17:27.328Z,99648.91
2022-09-10T14:20:19.392Z,99641.75
2022-09-10T14:23:13.292Z,99635.66
2022-09-10T14:26:23.151Z,99647.13
2022-09-10T14:29:24.433Z,99642.78
2022-09-10T14:32:28.857Z,99644.41
2022-09-10T14:35:39.170Z,99650.44
2022-09-10T14:38:29.011Z,99657.84
2022-09-10T14:41:22.680Z,99654.78
2022-09-10T14:44:16.595Z,99642.06
2022-09-10T14:47:14.537Z,99652.00
2022-09-10T14:50:30.829Z,99661.88
2022-09-10T14:53:19.152Z,99658.88
2022-09-10T14:56:13.758Z,99665.78
2022-09-10T14:59:03.446Z,99656.53
2022-09-10T15:01:51.867Z,99645.06
2022-09-10T15:04:40.311Z,99641.56
2022-09-10T15:07:30.182Z,99637.44
2022-09-10T15:10:18.637Z,99641.81
2022-09-10T15:13:07.267Z,99641.09
2022-09-10T15:15:55.874Z,99643.31
2022-09-10T15:18:44.311Z,99649.00
2022-09-10T15:21:32.657Z,99645.38
2022-09-10T15:24:23.695Z,99644.97
2022-09-10T15:27:12.302Z,99644.03
2022-09-10T15:30:00.860Z,99638.09
2022-09-10T15:32:49.215Z,99634.38
2022-09-10T15:35:37.556Z,99638.91
2022-09-10T15:38:25.883Z,99644.16
2022-09-10T15:41:16.936Z,99632.97
2022-09-10T15:44:05.934Z,99639.03
2022-09-10T15:46:54.418Z,99638.88
2022-09-10T15:49:42.916Z,99638.34
2022-09-10T15:52:32.452Z,99637.22
2022-09-10T15:55:21.003Z,99638.88
2022-09-10T15:58:12.492Z,99638.47
2022-09-10T16:01:04.905Z,99643.59
2022-09-10T16:03:55.279Z,99652.00
2022-09-10T16:06:43.716Z,99641.38
2022-09-10T16:09:32.444Z,99644.41
2022-09-10T16:12:20.771Z,99636.00
2022-09-10T16:15:12.220Z,99640.69
2022-09-10T16:18:00.754Z,99653.94
2022-09-10T16:20:49.400Z,99653.38
2022-09-10T16:23:38.129Z,99651.84
2022-09-10T16:26:29.426Z,99652.66
2022-09-10T16:29:19.424Z,99662.16
2022-09-10T16:32:09.344Z,99659.25
2022-09-10T16:34:57.678Z,99663.31
2022-09-10T16:37:46.081Z,99669.19
2022-09-10T16:40:34.533Z,99681.44
2022-09-10T16:43:23.242Z,99683.16
2022-09-10T16:46:12.633Z,99678.00
2022-09-10T16:49:02.384Z,99687.34
2022-09-10T16:51:50.806Z,99686.75
2022-09-10T16:54:40.021Z,99691.56
2022-09-10T16:57:28.448Z,99699.81
2022-09-10T17:00:18.096Z,99696.97
2022-09-10T17:03:06.644Z,99698.19
2022-09-10T17:05:56.730Z,99697.72
2022-09-10T17:08:45.215Z,99704.97
2022-09-10T17:11:33.866Z,99692.53
2022-09-10T17:14:22.484Z,99705.25
2022-09-10T17:17:10.850Z,99707.84
2022-09-10T17:19:59.324Z,99699.91
2022-09-10T17:22:49.040Z,99704.16
2022-09-10T17:25:37.552Z,99700.13
2022-09-10T17:28:27.241Z,99701.31
2022-09-10T17:31:15.601Z,99704.22
2022-09-10T17:34:05.771Z,99707.59
2022-09-10T17:36:54.376Z,99700.22
2022-09-10T17:39:44.760Z,99711.88
2022-09-10T17:42:33.237Z,99705.25
2022-09-10T17:45:21.923Z,99711.00
2022-09-10T17:48:10.295Z,99707.88
2022-09-10T17:50:59.250Z,99718.72
2022-09-10T17:53:47.685Z,99717.19
2022-09-10T17:56:37.999Z,99725.16
2022-09-10T17:59:27.095Z,99730.25
2022-09-10T18:02:16.314Z,99734.78
2022-09-10T18:05:05.561Z,99742.97
2022-09-10T18:07:53.896Z,99735.97
2022-09-10T18:10:42.291Z,99739.81
2022-09-10T18:13:32.195Z,99742.75
2022-09-10T18:16:22.391Z,99740.63
2022-09-10T18:19:14.424Z,99747.16
2022-09-10T18:22:02.895Z,99746.69
2022-09-10T18:24:51.426Z,99758.31
2022-09-10T18:27:41.515Z,99750.72
2022-09-10T18:30:31.214Z,99749.31
2022-09-10T18:33:19.565Z,99748.84
2022-09-10T18:36:13.473Z,99749.06
2022-09-10T18:39:03.503Z,99751.66
2022-09-10T18:41:51.956Z,99753.56
2022-09-10T18:44:40.312Z,99756.16
2022-09-10T18:47:44.209Z,99771.97
2022-09-10T18:50:33.884Z,99766.16
2022-09-10T18:53:23.311Z,99775.16
2022-09-10T18:56:13.556Z,99772.91
2022-09-10T18:59:06.988Z,99776.34
2022-09-10T19:01:55.733Z,99779.19
2022-09-10T19:05:09.878Z,99775.88
2022-09-10T19:07:53.976Z,99771.09
2022-09-10T19:10:42.337Z,99762.78
2022-09-10T19:13:31.426Z,99775.84
2022-09-10T19:16:20.276Z,99781.41
2022-09-10T19:19:09.116Z,99782.47
2022-09-10T19:22:01.060Z,99779.16
2022-09-10T19:24:54.931Z,99775.81
2022-09-10T19:27:45.071Z,99783.66
2022-09-10T19:30:38.328Z,99792.44
2022-09-10T19:33:27.638Z,99796.94
2022-09-10T19:36:17.760Z,99807.38
2022-09-10T19:39:08.816Z,99810.94
2022-09-10T19:41:57.163Z,99811.97
2022-09-10T19:44:45.491Z,99813.94
2022-09-10T19:47:33.974Z,99811.47
2022-09-10T19:50:23.453Z,99808.97
2022-09-10T19:53:12.132Z,99798.88
2022-09-10T19:56:06.827Z,99803.38
2022-09-10T19:58:56.530Z,99797.44
2022-09-10T20:01:45.884Z,99798.25
2022-09-10T20:04:34.601Z,99802.75
2022-09-10T20:07:23.010Z,99807.25
2022-09-10T20:10:11.510Z,99800.38
2022-09-10T20:13:01.284Z,99799.56
2022-09-10T20:15:50.101Z,99801.44
2022-09-10T20:18:39.048Z,99798.00
2022-09-10T20:21:29.899Z,99790.38
2022-09-10T20:24:18.310Z,99790.38
2022-09-10T20:27:06.778Z,99789.56
2022-09-10T20:29:56.836Z,99789.56
2022-09-10T20:32:45.714Z,99794.88
2022-09-10T20:35:34.123Z,99796.78
2022-09-10T20:38:22.591Z,99794.41
2022-09-10T20:41:11.702Z,99800.56
2022-09-10T20:44:01.138Z,99798.91
2022-09-10T20:46:50.980Z,99796.53
2022-09-10T20:49:39.372Z,99805.16
2022-09-10T20:52:27.702Z,99802.78
2022-09-10T20:55:16.179Z,99809.03
2022-09-10T20:58:04.569Z,99814.50
2022-09-10T21:00:52.949Z,99817.44
2022-09-10T21:03:42.790Z,99818.50
2022-09-10T21:06:32.936Z,99827.25
2022-09-10T21:09:21.299Z,99824.63
2022-09-10T21:12:11.314Z,99823.72
2022-09-10T21:14:59.663Z,99826.31
2022-09-10T21:17:49.273Z,99814.94
2022-09-10T21:20:39.014Z,99819.31
2022-09-10T21:23:27.348Z,99819.41
2022-09-10T21:26:17.559Z,99823.72
2022-09-10T21:29:07.232Z,99822.97
2022-09-10T21:31:56.726Z,99812.56
2022-09-10T21:34:45.181Z,99819.66
2022-09-10T21:37:35.077Z,99804.97
2022-09-10T21:40:24.177Z,99819.66
2022-09-10T21:43:14.037Z,99815.38
2022-09-10T21:46:02.634Z,99817.75
2022-09-10T21:48:52.323Z,99820.38
2022-09-10T21:51:41.111Z,99811.81
2022-09-10T21:54:30.884Z,99824.88
2022-09-10T21:57:19.372Z,99814.44
2022-09-10T22:00:09.356Z,99816.22
2022-09-10T22:03:01.660Z,99822.25
2022-09-10T22:05:50.036Z,99827.56
2022-09-10T22:08:39.754Z,99826.75
2022-09-10T22:11:31.506Z,99821.75
2022-09-10T22:14:21.309Z,99831.47
2022-09-10T22:17:09.694Z,99828.13
2022-09-10T22:19:58.100Z,99829.78
2022-09-10T22:22:46.454Z,99831.56
2022-09-10T22:25:35.039Z,99829.19
2022-09-10T22:28:24.727Z,99837.00
2022-09-10T22:31:14.665Z,99834.41
2022-09-10T22:34:04.527Z,99842.09
2022-09-10T22:36:52.897Z,99835.97
2022-09-10T22:39:41.281Z,99842.72
2022-09-10T22:42:30.983Z,99840.94
2022-09-10T22:45:20.945Z,99838.22
2022-09-10T22:48:10.146Z,99841.66
2022-09-10T22:50:59.747Z,99840.94
2022-09-10T22:53:48.199Z,99842.72
2022-09-10T22:56:36.707Z,99835.22
2022-09-10T22:59:27.729Z,99832.72
2022-09-10T23:02:17.390Z,99839.00
2022-09-10T23:05:06.558Z,99840.78
2022-09-10T23:07:54.905Z,99847.75
2022-09-10T23:10:43.329Z,99851.53
2022-09-10T23:13:31.689Z,99850.47
2022-09-10T23:16:22.145Z,99853.09
2022-09-10T23:19:14.044Z,99849.00
2022-09-10T23:22:03.493Z,99851.72
2022-09-10T23:24:51.823Z,99845.81
2022-09-10T23:27:40.275Z,99852.78
2022-09-10T23:30:29.523Z,99856.25
2022-09-10T23:33:17.878Z,99851.72
2022-09-10T23:36:08.450Z,99850.69
2022-09-10T23:38:56.868Z,99854.63
2022-09-10T23:41:45.275Z,99854.44
2022-09-10T23:44:33.967Z,99849.22
2022-09-10T23:47:22.318Z,99850.16
2022-09-10T23:50:11.142Z,99852.75
2022-09-10T23:53:00.882Z,99855.44
2022-09-10T23:55:49.360Z,99857.34
2022-09-10T23:58:38.954Z,99854.13
